Time;durP1;ratioP1;P1;durP2;ratioP2;P2;SDS_P1;SDS_P2;PMS_P1;PMS_P2;Temp;Humidity;BMP_temperature;BMP_pressure;BME280_temperature;BME280_humidity;BME280_pressure;Samples;Min_cycle;Max_cycle;Signal;HPM_P1;HPM_P2
2021/04/18 00:01:19;;;;;;;2.40;0.80;;;;;;;5.21;80.59;93087.16;4991369;28;20022;-43
2021/04/18 00:03:44;;;;;;;0.73;0.73;;;;;;;5.21;80.41;93074.22;4991781;28;20026;-41
2021/04/18 00:06:09;;;;;;;0.52;0.52;;;;;;;5.22;81.12;93066.72;4991449;28;20022;-42
2021/04/18 00:08:35;;;;;;;0.30;0.30;;;;;;;5.23;81.53;93062.75;4991672;28;20050;-41
2021/04/18 00:11:00;;;;;;;0.40;0.40;;;;;;;5.23;81.00;93060.75;4991376;28;20030;-42
2021/04/18 00:13:26;;;;;;;0.88;0.80;;;;;;;5.26;81.24;93064.44;4991342;28;20018;-42
2021/04/18 00:15:51;;;;;;;0.50;0.50;;;;;;;5.26;80.79;93064.44;4990977;28;20018;-43
2021/04/18 00:18:16;;;;;;;0.55;0.40;;;;;;;5.36;80.48;93065.50;4990270;28;20455;-43
2021/04/18 00:20:42;;;;;;;0.90;0.90;;;;;;;5.21;80.82;93063.28;4991065;28;20030;-43
2021/04/18 00:23:08;;;;;;;1.30;1.08;;;;;;;5.10;81.72;93068.94;4990014;28;20042;-42
2021/04/18 00:25:33;;;;;;;1.05;1.05;;;;;;;5.09;81.34;93064.00;4990834;28;20018;-44
2021/04/18 00:27:59;;;;;;;0.68;0.68;;;;;;;5.12;81.50;93069.16;4990783;28;20026;-43
2021/04/18 00:30:25;;;;;;;0.60;0.60;;;;;;;5.06;81.41;93078.69;4973353;28;20030;-41
2021/04/18 00:32:51;;;;;;;0.88;0.88;;;;;;;4.94;82.38;93080.13;4990483;28;20045;-41
2021/04/18 00:35:19;;;;;;;1.33;1.33;;;;;;;4.87;82.87;93064.34;4989515;28;20030;-41
2021/04/18 00:37:45;;;;;;;0.50;0.50;;;;;;;4.93;82.43;93051.31;4972765;28;20018;-42
2021/04/18 00:40:13;;;;;;;0.47;0.47;;;;;;;4.79;82.96;93057.97;4990957;28;20022;-43
2021/04/18 00:42:39;;;;;;;0.40;0.40;;;;;;;4.93;82.96;93057.53;4990548;28;20026;-42
2021/04/18 00:45:06;;;;;;;0.77;0.68;;;;;;;5.01;82.06;93052.91;4990423;28;20034;-42
2021/04/18 00:47:32;;;;;;;0.57;0.57;;;;;;;5.04;81.60;93057.34;4990525;28;20026;-41
2021/04/18 00:50:02;;;;;;;0.70;0.70;;;;;;;4.98;82.58;93053.22;4989558;28;20026;-41
2021/04/18 00:52:28;;;;;;;1.35;1.05;;;;;;;4.98;82.97;93055.97;4988128;28;20029;-41
2021/04/18 00:54:53;;;;;;;0.68;0.68;;;;;;;5.03;82.66;93047.66;4989078;28;20022;-42
2021/04/18 00:57:19;;;;;;;0.85;0.85;;;;;;;5.01;82.95;93046.69;4989522;28;20030;-43
2021/04/18 00:59:45;;;;;;;0.82;0.82;;;;;;;5.09;82.70;93053.03;4989531;28;20406;-41
2021/04/18 01:02:11;;;;;;;0.43;0.43;;;;;;;5.17;81.87;93048.41;4988118;28;20026;-42
2021/04/18 01:04:36;;;;;;;0.60;0.60;;;;;;;5.20;81.82;93036.41;4986661;28;20468;-41
2021/04/18 01:07:02;;;;;;;1.95;0.90;;;;;;;5.29;81.79;93027.81;4989461;28;20442;-41
2021/04/18 01:09:29;;;;;;;3.20;0.60;;;;;;;5.32;80.78;93018.56;4985056;28;20466;-41
2021/04/18 01:11:55;;;;;;;0.88;0.88;;;;;;;5.30;81.47;93016.34;4989249;28;20018;-42
2021/04/18 01:14:20;;;;;;;0.88;0.88;;;;;;;5.33;81.34;93009.81;4971462;28;20026;-43
2021/04/18 01:16:46;;;;;;;0.85;0.85;;;;;;;5.37;81.39;93017.72;4988929;28;20045;-45
2021/04/18 01:19:12;;;;;;;0.55;0.55;;;;;;;5.49;81.23;93021.72;4989299;28;20029;-43
2021/04/18 01:21:37;;;;;;;0.98;0.98;;;;;;;5.45;81.11;93024.03;4990014;28;20109;-44
2021/04/18 01:24:03;;;;;;;0.25;0.25;;;;;;;5.37;81.52;93018.44;4988802;28;20166;-43
2021/04/18 01:26:28;;;;;;;0.95;0.95;;;;;;;5.43;81.58;93021.09;4990265;28;20022;-44
2021/04/18 01:28:54;;;;;;;0.82;0.82;;;;;;;5.47;81.47;93021.50;4990031;28;20018;-43
2021/04/18 01:31:19;;;;;;;0.47;0.47;;;;;;;5.59;81.02;93024.78;4989295;28;20018;-45
2021/04/18 01:33:45;;;;;;;0.40;0.40;;;;;;;5.53;80.75;93024.13;4989949;28;20042;-46
2021/04/18 01:36:10;;;;;;;0.95;0.93;;;;;;;5.47;81.08;93020.75;4956422;28;20570;-43
2021/04/18 01:38:37;;;;;;;1.48;1.38;;;;;;;5.43;81.38;93023.81;4988699;28;20053;-45
2021/04/18 01:41:02;;;;;;;0.30;0.30;;;;;;;5.50;81.50;93025.91;4989814;28;20081;-44
2021/04/18 01:43:28;;;;;;;0.85;0.85;;;;;;;5.53;81.31;93032.34;4989330;28;20022;-46
2021/04/18 01:45:54;;;;;;;2.35;2.15;;;;;;;5.53;81.00;93029.59;4986757;28;20029;-45
2021/04/18 01:48:20;;;;;;;0.70;0.70;;;;;;;5.60;80.63;93029.72;4989739;28;20032;-41
2021/04/18 01:50:47;;;;;;;0.60;0.60;;;;;;;5.62;80.80;93035.41;4988740;28;20030;-44
2021/04/18 01:53:13;;;;;;;0.63;0.63;;;;;;;5.59;80.96;93047.41;4988786;28;20026;-44
2021/04/18 01:55:39;;;;;;;0.28;0.28;;;;;;;5.58;80.24;93043.22;4990176;28;20033;-45
2021/04/18 01:58:05;;;;;;;0.45;0.45;;;;;;;5.54;80.54;93031.09;4990147;28;20077;-44
2021/04/18 02:00:30;;;;;;;1.05;1.05;;;;;;;5.62;80.47;93026.44;4989886;28;20034;-42
2021/04/18 02:02:56;;;;;;;0.60;0.60;;;;;;;5.65;79.86;93023.38;4989706;28;20120;-44
2021/04/18 02:05:21;;;;;;;0.82;0.82;;;;;;;5.56;79.94;93021.09;4990189;28;20033;-41
2021/04/18 02:07:47;;;;;;;1.05;1.05;;;;;;;5.47;79.91;93010.56;4990146;28;20084;-40
2021/04/18 02:10:14;;;;;;;0.50;0.30;;;;;;;5.28;81.04;93007.91;4990195;28;20026;-40
2021/04/18 02:12:40;;;;;;;1.00;1.00;;;;;;;5.24;81.07;93017.72;4990048;28;20086;-41
2021/04/18 02:15:06;;;;;;;0.80;0.80;;;;;;;5.17;82.16;93013.59;4989731;28;20026;-41
2021/04/18 02:17:32;;;;;;;0.32;0.32;;;;;;;5.26;82.00;93018.63;4989699;28;20056;-46
2021/04/18 02:19:57;;;;;;;0.93;0.93;;;;;;;5.29;81.15;93012.13;4989597;28;20030;-43
2021/04/18 02:22:22;;;;;;;0.98;0.50;;;;;;;5.35;81.16;93003.78;4989853;28;20033;-44
2021/04/18 02:24:48;;;;;;;0.70;0.70;;;;;;;5.44;80.46;92999.91;4989663;28;20030;-41
2021/04/18 02:27:14;;;;;;;1.23;1.15;;;;;;;5.27;80.49;92994.75;4989394;28;20046;-41
2021/04/18 02:29:39;;;;;;;1.13;1.13;;;;;;;5.20;79.74;92974.22;4989660;28;20033;-42
2021/04/18 02:32:05;;;;;;;1.65;0.88;;;;;;;5.12;80.20;92967.16;4989431;28;20428;-42
2021/04/18 02:34:30;;;;;;;0.98;0.88;;;;;;;5.14;79.73;92978.31;4989423;28;20510;-40
2021/04/18 02:36:56;;;;;;;0.30;0.30;;;;;;;5.06;80.48;92966.53;4989462;28;20030;-41
2021/04/18 02:39:21;;;;;;;1.05;1.02;;;;;;;5.19;80.76;93005.59;4989373;28;20494;-40
2021/04/18 02:41:47;;;;;;;0.45;0.45;;;;;;;5.22;81.23;93018.22;4989009;28;20037;-41
2021/04/18 02:44:12;;;;;;;0.82;0.75;;;;;;;5.23;80.86;93016.97;4989306;28;20052;-41
2021/04/18 02:46:39;;;;;;;1.60;1.50;;;;;;;5.21;81.26;93016.00;4991949;28;20026;-41
2021/04/18 02:49:04;;;;;;;1.17;1.17;;;;;;;5.33;80.02;93022.75;4992810;28;20396;-41
2021/04/18 02:51:30;;;;;;;2.35;2.25;;;;;;;5.32;79.51;93018.56;4975297;28;20033;-42
2021/04/18 02:53:58;;;;;;;1.10;1.10;;;;;;;5.37;78.83;93023.19;4993068;28;20151;-44
2021/04/18 02:56:25;;;;;;;1.30;1.25;;;;;;;5.34;79.21;93030.44;4992718;28;20042;-44
2021/04/18 02:58:50;;;;;;;1.20;1.20;;;;;;;5.23;79.64;93006.00;4992810;28;20034;-46
2021/04/18 03:01:16;;;;;;;1.25;1.25;;;;;;;5.43;79.67;93036.78;4992397;28;20053;-43
2021/04/18 03:03:41;;;;;;;0.45;0.45;;;;;;;5.21;78.92;93024.97;4992460;28;20053;-42
2021/04/18 03:06:06;;;;;;;1.58;1.48;;;;;;;5.27;78.76;93027.59;4992693;28;20159;-43
2021/04/18 03:08:32;;;;;;;3.35;0.70;;;;;;;5.20;79.37;93028.94;4992428;28;20419;-45
2021/04/18 03:10:57;;;;;;;7.13;2.03;;;;;;;5.16;79.74;93028.53;4992249;28;20033;-43
2021/04/18 03:13:23;;;;;;;1.23;1.23;;;;;;;5.08;79.16;93016.00;4992257;28;20022;-44
2021/04/18 03:15:48;;;;;;;1.02;0.68;;;;;;;5.18;79.28;93019.78;4992228;28;20030;-43
2021/04/18 03:18:14;;;;;;;0.73;0.73;;;;;;;5.18;79.93;93026.00;4992415;28;20033;-44
2021/04/18 03:20:39;;;;;;;0.75;0.75;;;;;;;5.17;80.70;93021.06;4992510;28;20030;-45
2021/04/18 03:23:05;;;;;;;0.68;0.68;;;;;;;5.25;80.28;93027.38;4991877;28;20109;-45
2021/04/18 03:25:30;;;;;;;1.13;0.60;;;;;;;5.10;79.63;93022.41;4992286;28;20025;-44
2021/04/18 03:27:56;;;;;;;0.40;0.40;;;;;;;5.13;79.93;93026.09;4992111;28;20025;-42
2021/04/18 03:30:21;;;;;;;1.17;1.17;;;;;;;5.18;79.25;93026.00;4991947;28;20026;-44
2021/04/18 03:32:47;;;;;;;0.30;0.30;;;;;;;5.10;80.13;93025.16;5003749;28;20049;-41
2021/04/18 03:35:13;;;;;;;0.90;0.90;;;;;;;5.12;79.86;93016.41;5011652;28;20466;-41
2021/04/18 03:37:39;;;;;;;1.95;1.85;;;;;;;5.07;79.58;93019.97;4999312;28;20033;-42
2021/04/18 03:40:05;;;;;;;0.35;0.35;;;;;;;4.94;79.64;93014.47;4991985;28;20027;-42
2021/04/18 03:42:31;;;;;;;1.90;0.73;;;;;;;5.11;78.67;93028.63;4992276;28;20085;-43
2021/04/18 03:44:56;;;;;;;0.50;0.50;;;;;;;5.10;78.55;93022.41;4991844;28;20451;-42
2021/04/18 03:47:21;;;;;;;0.65;0.65;;;;;;;5.03;79.66;93011.34;4991923;28;20026;-42
2021/04/18 03:49:47;;;;;;;0.52;0.52;;;;;;;5.09;78.50;93017.47;4992083;28;20034;-44
2021/04/18 03:52:12;;;;;;;1.23;1.13;;;;;;;5.05;79.16;93014.28;4992153;28;20462;-44
2021/04/18 03:54:38;;;;;;;0.75;0.75;;;;;;;5.18;77.70;93015.06;4992145;28;20423;-43
2021/04/18 03:57:03;;;;;;;2.13;2.03;;;;;;;5.06;77.77;93015.78;4991885;28;20629;-41
2021/04/18 03:59:29;;;;;;;0.45;0.45;;;;;;;4.99;78.58;93016.38;4992007;28;20033;-40
2021/04/18 04:01:54;;;;;;;0.50;0.50;;;;;;;5.05;78.31;93011.56;4991515;28;20487;-42
2021/04/18 04:04:20;;;;;;;1.55;0.93;;;;;;;5.06;77.44;93021.25;4991760;28;20034;-41
2021/04/18 04:06:45;;;;;;;1.23;1.17;;;;;;;4.96;78.03;93015.44;4991741;28;20096;-42
2021/04/18 04:09:11;;;;;;;1.15;1.05;;;;;;;4.96;78.11;93017.44;4991164;28;20102;-42
2021/04/18 04:11:36;;;;;;;1.52;1.42;;;;;;;4.81;78.74;93030.88;4991343;28;20026;-41
2021/04/18 04:14:02;;;;;;;0.95;0.95;;;;;;;4.92;79.23;93047.09;4991341;28;20026;-41
2021/04/18 04:16:27;;;;;;;0.57;0.57;;;;;;;4.85;79.74;93066.84;4991131;28;20034;-41
2021/04/18 04:18:53;;;;;;;1.17;0.60;;;;;;;4.90;79.20;93072.22;4991316;28;20054;-41
2021/04/18 04:21:18;;;;;;;0.80;0.80;;;;;;;4.90;79.69;93063.28;4991093;28;20034;-41
2021/04/18 04:23:44;;;;;;;1.50;1.40;;;;;;;4.85;79.64;93040.22;4990860;28;20487;-43
2021/04/18 04:26:09;;;;;;;0.85;0.85;;;;;;;4.82;79.88;93035.06;4990871;28;20038;-42
2021/04/18 04:28:35;;;;;;;1.65;1.02;;;;;;;4.99;79.08;93038.28;4973433;28;20022;-44
2021/04/18 04:31:01;;;;;;;0.30;0.30;;;;;;;4.98;78.59;93040.25;4990783;28;20454;-42
2021/04/18 04:33:32;;;;;;;0.40;0.40;;;;;;;5.03;79.15;93066.06;4990572;28;20074;-41
2021/04/18 04:35:58;;;;;;;1.40;1.35;;;;;;;5.07;79.76;93077.44;4991057;28;20117;-42
2021/04/18 04:38:23;;;;;;;0.50;0.50;;;;;;;5.22;79.82;93086.63;4990680;28;20574;-44
2021/04/18 04:40:49;;;;;;;1.58;1.48;;;;;;;5.26;79.44;93089.78;4990571;28;20026;-43
2021/04/18 04:43:14;;;;;;;0.95;0.90;;;;;;;5.37;78.83;93094.38;4989966;28;20026;-44
2021/04/18 04:45:39;;;;;;;1.42;0.63;;;;;;;5.38;78.64;93104.03;4990400;28;20024;-41
2021/04/18 04:48:05;;;;;;;0.70;0.68;;;;;;;5.34;78.70;93098.16;4989734;28;20029;-41
2021/04/18 04:50:31;;;;;;;0.28;0.28;;;;;;;5.38;78.05;93109.50;4982312;28;20027;-43
2021/04/18 04:52:56;;;;;;;1.20;1.20;;;;;;;5.21;78.98;93100.84;4982120;28;20025;-44
2021/04/18 04:55:22;;;;;;;3.80;2.03;;;;;;;5.27;79.75;93099.50;4982388;28;20503;-42
2021/04/18 04:57:47;;;;;;;1.10;1.10;;;;;;;5.03;80.00;93104.34;4979699;28;20026;-43
2021/04/18 05:00:13;;;;;;;1.20;1.20;;;;;;;5.13;79.96;93103.44;4982505;28;20022;-44
2021/04/18 05:02:39;;;;;;;1.65;1.23;;;;;;;5.06;79.75;93098.59;4981772;28;20014;-44
2021/04/18 05:05:05;;;;;;;0.65;0.65;;;;;;;4.98;80.08;93099.72;4981757;28;20025;-40
2021/04/18 05:07:30;;;;;;;3.05;1.00;;;;;;;4.96;80.81;93100.22;4984512;28;20102;-43
2021/04/18 05:09:56;;;;;;;0.50;0.50;;;;;;;4.92;81.22;93093.59;4977924;28;20105;-46
2021/04/18 05:12:21;;;;;;;0.85;0.85;;;;;;;4.84;81.31;93092.72;4980751;28;20034;-41
2021/04/18 05:14:46;;;;;;;0.60;0.60;;;;;;;4.99;81.96;93084.78;4980967;28;20025;-42
2021/04/18 05:17:12;;;;;;;1.48;1.38;;;;;;;5.23;80.88;93101.06;4980722;28;20030;-43
2021/04/18 05:19:37;;;;;;;0.75;0.75;;;;;;;5.27;79.66;93090.53;4978870;28;20072;-46
2021/04/18 05:22:03;;;;;;;0.85;0.85;;;;;;;5.33;79.66;93091.19;4984381;28;20038;-41
2021/04/18 05:24:28;;;;;;;0.88;0.88;;;;;;;5.41;79.66;93094.06;4969506;28;20630;-41
2021/04/18 05:26:54;;;;;;;0.77;0.77;;;;;;;5.49;80.08;93089.41;4970374;28;20027;-42
2021/04/18 05:29:20;;;;;;;0.90;0.90;;;;;;;5.53;80.40;93098.81;4970515;28;20415;-42
2021/04/18 05:31:46;;;;;;;1.00;1.00;;;;;;;5.61;80.12;93096.91;4970725;28;20122;-42
2021/04/18 05:34:12;;;;;;;3.15;1.80;;;;;;;5.71;79.74;93105.47;4970958;28;20027;-44
2021/04/18 05:36:38;;;;;;;1.02;1.02;;;;;;;5.65;79.43;93089.13;4975037;28;20031;-42
2021/04/18 05:39:07;;;;;;;1.10;0.85;;;;;;;5.66;79.31;93087.13;4990027;28;20053;-41
2021/04/18 05:41:33;;;;;;;3.35;2.47;;;;;;;5.51;79.05;93063.00;4989835;28;20026;-43
2021/04/18 05:43:58;;;;;;;1.77;1.67;;;;;;;5.76;78.90;93079.97;4990171;28;20084;-42
2021/04/18 05:46:24;;;;;;;1.58;1.48;;;;;;;5.82;78.98;93077.88;4990145;28;20033;-43
2021/04/18 05:48:49;;;;;;;1.70;1.63;;;;;;;5.91;79.05;93089.16;4989643;28;20026;-41
2021/04/18 05:51:14;;;;;;;2.10;1.90;;;;;;;5.96;77.98;93091.06;4989971;28;20531;-42
2021/04/18 05:53:40;;;;;;;0.98;0.98;;;;;;;5.76;77.95;93094.41;4987202;28;20022;-39
2021/04/18 05:56:06;;;;;;;1.17;1.17;;;;;;;5.78;78.38;93091.88;4987892;28;20438;-39
2021/04/18 05:58:31;;;;;;;2.05;1.88;;;;;;;5.73;78.42;93086.50;4987789;28;20529;-39
2021/04/18 06:00:57;;;;;;;2.55;0.95;;;;;;;5.68;77.74;93095.53;4987496;28;20479;-39
2021/04/18 06:03:22;;;;;;;1.08;1.08;;;;;;;5.65;78.79;93089.13;4987748;28;20034;-39
2021/04/18 06:05:48;;;;;;;0.95;0.95;;;;;;;5.67;78.93;93094.09;4987583;28;20529;-39
2021/04/18 06:08:13;;;;;;;2.00;1.90;;;;;;;5.72;78.98;93090.50;4986642;28;20030;-40
2021/04/18 06:10:39;;;;;;;1.27;1.17;;;;;;;5.71;78.86;93095.25;4986117;28;20029;-39
2021/04/18 06:13:04;;;;;;;0.50;0.50;;;;;;;5.66;79.01;93081.66;4987287;28;20022;-39
2021/04/18 06:15:30;;;;;;;2.88;2.28;;;;;;;5.91;77.94;93091.91;4987507;28;20022;-39
2021/04/18 06:17:55;;;;;;;0.60;0.60;;;;;;;5.91;77.50;93091.91;4987468;28;20046;-40
2021/04/18 06:20:21;;;;;;;0.90;0.73;;;;;;;5.92;77.70;93092.63;4988743;28;20054;-39
2021/04/18 06:22:47;;;;;;;0.70;0.70;;;;;;;5.91;77.40;93094.63;4991189;28;20767;-39
2021/04/18 06:25:15;;;;;;;0.55;0.55;;;;;;;5.93;77.45;93096.88;4991004;28;20101;-39
2021/04/18 06:27:40;;;;;;;1.90;1.42;;;;;;;5.81;79.00;93090.81;4991045;28;20030;-39
2021/04/18 06:30:06;;;;;;;1.48;1.35;;;;;;;5.89;79.09;93090.97;4990616;28;20099;-41
2021/04/18 06:32:32;;;;;;;1.80;1.33;;;;;;;6.09;76.32;93080.09;4990760;28;20153;-41
2021/04/18 06:34:58;;;;;;;3.20;2.60;;;;;;;6.09;76.27;93079.34;4990556;28;20112;-42
2021/04/18 06:37:23;;;;;;;0.73;0.73;;;;;;;5.78;76.30;93078.16;4990684;28;20026;-41
2021/04/18 06:39:48;;;;;;;1.15;1.15;;;;;;;5.93;77.26;93083.88;4989995;28;20067;-40
2021/04/18 06:42:16;;;;;;;1.42;1.33;;;;;;;5.85;76.58;93088.53;4991043;28;20491;-41
2021/04/18 06:44:42;;;;;;;1.92;1.25;;;;;;;5.90;77.31;93084.94;4989877;28;20026;-42
2021/04/18 06:47:08;;;;;;;0.55;0.55;;;;;;;6.03;77.10;93079.47;4990919;28;20035;-41
2021/04/18 06:49:34;;;;;;;5.55;1.25;;;;;;;6.09;76.47;93080.09;4991173;28;20041;-41
2021/04/18 06:52:00;;;;;;;1.20;1.20;;;;;;;6.20;75.33;93079.13;4990451;28;20033;-41
2021/04/18 06:54:26;;;;;;;1.10;1.10;;;;;;;5.95;75.80;93092.34;4990405;28;20030;-41
2021/04/18 06:56:51;;;;;;;1.38;1.27;;;;;;;5.96;75.82;93087.56;4990602;28;20029;-41
2021/04/18 06:59:17;;;;;;;0.70;0.70;;;;;;;6.06;76.52;93094.84;4990633;28;20083;-42
2021/04/18 07:01:42;;;;;;;5.38;2.15;;;;;;;6.22;75.84;93100.53;4990288;28;20053;-41
2021/04/18 07:04:15;;;;;;;1.60;1.50;;;;;;;6.30;76.47;93104.84;4990327;28;20030;-41
2021/04/18 07:06:54;;;;;;;2.22;2.03;;;;;;;6.44;76.51;93106.31;4989711;28;20106;-41
2021/04/18 07:09:20;;;;;;;;;;;;;;;6.49;74.56;93115.69;4991249;28;20110;-42
2021/04/18 07:12:03;;;;;;;0.50;0.50;;;;;;;6.49;74.53;93110.94;4987734;28;20378;-40
2021/04/18 07:14:30;;;;;;;0.63;0.63;;;;;;;6.43;74.50;93112.31;4990135;28;20026;-41
2021/04/18 07:17:10;;;;;;;4.65;0.68;;;;;;;6.73;74.12;93107.94;4990062;28;20031;-38
2021/04/18 07:19:38;;;;;;;0.70;0.70;;;;;;;6.89;73.73;93103.31;4990547;28;20054;-40
2021/04/18 07:22:04;;;;;;;2.03;1.67;;;;;;;6.95;74.26;93101.22;4989642;28;20026;-40
2021/04/18 07:24:30;;;;;;;0.57;0.57;;;;;;;7.21;73.85;93089.38;4990106;28;20643;-40
2021/04/18 07:26:57;;;;;;;1.05;1.02;;;;;;;7.38;72.46;93092.44;4989765;28;20113;-42
2021/04/18 07:29:25;;;;;;;1.20;1.20;;;;;;;7.42;72.19;93090.09;4990224;28;20463;-40
2021/04/18 07:31:51;;;;;;;0.68;0.68;;;;;;;7.60;69.65;93098.13;4989371;28;20065;-40
2021/04/18 07:34:21;;;;;;;0.55;0.55;;;;;;;7.59;70.51;93098.66;4972749;28;20443;-40
2021/04/18 07:36:50;;;;;;;0.40;0.40;;;;;;;7.62;69.22;93092.81;4989871;28;20061;-40
2021/04/18 07:39:18;;;;;;;1.95;1.85;;;;;;;7.59;69.40;93095.91;4989732;28;20088;-41
2021/04/18 07:41:45;;;;;;;1.40;1.25;;;;;;;7.69;69.53;93091.41;4989505;28;20419;-40
2021/04/18 07:44:16;;;;;;;1.60;1.50;;;;;;;7.78;70.28;93090.19;4989429;28;20033;-40
2021/04/18 07:46:45;;;;;;;0.95;0.85;;;;;;;7.93;70.18;93096.53;4989628;28;20567;-40
2021/04/18 07:49:12;;;;;;;0.68;0.68;;;;;;;7.99;69.49;93097.09;4989306;28;20513;-41
2021/04/18 07:51:39;;;;;;;0.45;0.45;;;;;;;8.08;69.53;93096.63;4989743;28;20125;-40
2021/04/18 07:54:04;;;;;;;1.98;1.88;;;;;;;7.94;69.69;93102.75;4989128;28;20101;-41
2021/04/18 07:56:30;;;;;;;1.27;1.23;;;;;;;8.03;69.28;93096.78;4989568;28;20109;-40
2021/04/18 07:58:57;;;;;;;0.52;0.52;;;;;;;8.38;68.21;93104.34;4989613;28;20106;-41
2021/04/18 08:01:23;;;;;;;0.73;0.73;;;;;;;8.52;68.51;93100.19;4972213;28;20038;-40
2021/04/18 08:03:49;;;;;;;1.40;1.30;;;;;;;8.23;67.88;93098.72;4986773;28;20026;-40
2021/04/18 08:06:17;;;;;;;1.17;1.17;;;;;;;7.97;69.80;93091.41;4988894;28;20030;-40
2021/04/18 08:08:46;;;;;;;0.90;0.88;;;;;;;8.41;68.21;93089.50;4973370;28;20031;-40
2021/04/18 08:11:13;;;;;;;0.97;0.97;;;;;;;8.78;67.06;93090.91;4970503;28;20034;-40
2021/04/18 08:13:50;;;;;;;1.17;1.08;;;;;;;8.90;68.32;93089.31;4988313;28;20034;-41
2021/04/18 08:16:29;;;;;;;1.25;1.23;;;;;;;8.81;67.92;93095.34;4988529;28;20030;-41
2021/04/18 08:19:05;;;;;;;0.80;0.80;;;;;;;9.02;67.89;93087.69;4988065;28;20491;-40
2021/04/18 08:21:39;;;;;;;0.98;0.93;;;;;;;9.24;65.25;93092.50;4988377;28;20451;-42
2021/04/18 08:24:30;;;;;;;0.52;0.52;;;;;;;8.80;66.79;93083.59;4988588;28;20026;-41
2021/04/18 08:27:00;;;;;;;1.30;0.98;;;;;;;8.70;67.26;93082.66;4988427;28;20030;-40
2021/04/18 08:29:26;;;;;;;0.93;0.93;;;;;;;8.29;68.48;93066.34;4987893;28;20034;-40
2021/04/18 08:32:09;;;;;;;1.55;1.45;;;;;;;8.38;69.79;93085.09;4988142;28;20113;-40
2021/04/18 08:34:41;;;;;;;0.50;0.50;;;;;;;8.56;69.11;93089.56;4988154;28;20197;-40
2021/04/18 08:37:15;;;;;;;1.33;1.23;;;;;;;9.05;66.48;93086.59;4987219;28;20499;-41
2021/04/18 08:39:40;;;;;;;1.98;1.85;;;;;;;8.88;67.62;93086.38;4987423;28;20434;-41
2021/04/18 08:42:07;;;;;;;1.17;1.02;;;;;;;9.07;68.53;93082.00;4986983;28;20026;-40
2021/04/18 08:44:38;;;;;;;1.45;1.35;;;;;;;9.42;66.16;93096.19;4986200;28;20033;-40
2021/04/18 08:47:06;;;;;;;0.90;0.90;;;;;;;9.48;67.71;93091.25;4985448;28;20125;-40
2021/04/18 08:49:36;;;;;;;1.05;1.00;;;;;;;9.32;67.76;93095.25;4987141;28;20418;-40
2021/04/18 08:52:05;;;;;;;1.23;1.13;;;;;;;9.46;68.14;93086.28;4987733;28;20034;-40
2021/04/18 08:54:41;;;;;;;1.85;1.75;;;;;;;9.50;67.20;93105.94;4985348;28;20113;-40
2021/04/18 08:57:10;;;;;;;1.52;0.82;;;;;;;9.50;67.94;93103.19;4987938;28;20092;-40
2021/04/18 08:59:38;;;;;;;0.70;0.70;;;;;;;9.22;68.09;93091.56;4988257;28;20030;-42
2021/04/18 09:02:08;;;;;;;2.72;2.17;;;;;;;9.22;67.89;93097.81;4987453;28;20034;-41
2021/04/18 09:04:35;;;;;;;1.52;1.42;;;;;;;9.15;68.90;93098.53;4987906;28;20429;-41
2021/04/18 09:07:02;;;;;;;1.67;1.58;;;;;;;9.23;67.38;93104.78;4968006;28;20170;-40
2021/04/18 09:09:28;;;;;;;3.97;1.98;;;;;;;9.27;68.17;93104.44;4968530;28;20158;-40
2021/04/18 09:11:55;;;;;;;1.17;1.08;;;;;;;9.49;69.08;93095.44;4967954;28;20101;-40
2021/04/18 09:14:45;;;;;;;2.03;1.92;;;;;;;9.64;67.63;93087.19;4979036;28;20470;-41
2021/04/18 09:17:30;;;;;;;0.52;0.52;;;;;;;9.62;67.19;93096.03;4985966;28;20836;-40
2021/04/18 09:19:57;;;;;;;0.95;0.93;;;;;;;9.74;68.98;93093.63;4986980;28;20105;-40
2021/04/18 09:22:53;;;;;;;1.23;1.13;;;;;;;9.52;67.82;93091.59;4986698;28;20030;-40
2021/04/18 09:25:19;;;;;;;1.58;1.42;;;;;;;9.62;67.78;93085.00;4961382;28;20775;-40
2021/04/18 09:27:49;;;;;;;1.63;1.60;;;;;;;9.75;68.37;93093.09;4986898;28;20566;-40
2021/04/18 09:30:17;;;;;;;1.23;1.23;;;;;;;9.89;66.75;93091.63;4986903;28;20490;-40
2021/04/18 09:32:47;;;;;;;0.85;0.85;;;;;;;9.74;65.66;93096.41;4987083;28;20138;-40
2021/04/18 09:35:15;;;;;;;2.08;1.95;;;;;;;9.80;67.42;93099.69;4969670;28;20034;-39
2021/04/18 09:37:43;;;;;;;2.63;2.45;;;;;;;9.54;66.14;93089.03;4987487;28;20018;-40
2021/04/18 09:40:12;;;;;;;1.98;1.73;;;;;;;9.59;67.53;93094.38;4987151;28;20034;-40
2021/04/18 09:42:42;;;;;;;5.72;1.60;;;;;;;9.85;66.85;93102.25;4975862;28;20490;-40
2021/04/18 09:45:16;;;;;;;1.63;1.55;;;;;;;10.07;67.38;93097.28;4968520;28;20037;-39
2021/04/18 09:47:43;;;;;;;2.17;1.98;;;;;;;10.06;65.09;93104.81;4968735;28;20038;-42
2021/04/18 09:50:30;;;;;;;3.92;1.55;;;;;;;10.34;65.43;93093.59;4968480;28;20045;-41
2021/04/18 09:53:12;;;;;;;1.58;1.20;;;;;;;10.45;64.76;93090.44;4968303;28;20023;-41
2021/04/18 09:55:59;;;;;;;4.57;1.67;;;;;;;10.48;65.58;93094.81;4971493;28;20041;-41
2021/04/18 09:58:28;;;;;;;1.85;1.65;;;;;;;10.87;66.36;93101.66;4976470;28;20118;-40
2021/04/18 10:00:55;;;;;;;2.80;1.85;;;;;;;10.79;63.75;93103.00;4991020;28;20045;-41
2021/04/18 10:03:21;;;;;;;2.88;2.70;;;;;;;10.98;61.20;93095.00;4973928;28;20030;-40
2021/04/18 10:05:46;;;;;;;1.15;1.15;;;;;;;11.33;60.05;93088.34;4991275;28;20030;-41
2021/04/18 10:08:18;;;;;;;0.60;0.60;;;;;;;11.54;61.70;93097.06;4990772;28;20049;-41
2021/04/18 10:10:49;;;;;;;1.55;1.20;;;;;;;11.89;59.37;93097.94;4991292;28;20121;-43
2021/04/18 10:13:14;;;;;;;0.60;0.60;;;;;;;12.09;58.51;93100.34;4991035;28;20499;-41
2021/04/18 10:15:51;;;;;;;0.77;0.77;;;;;;;11.66;57.97;93081.50;4991054;28;20033;-41
2021/04/18 10:18:18;;;;;;;0.93;0.93;;;;;;;11.97;58.36;93080.00;4990963;28;20058;-42
2021/04/18 10:20:43;;;;;;;1.30;0.65;;;;;;;11.84;58.92;93083.03;4968133;28;20113;-41
2021/04/18 10:23:11;;;;;;;2.10;1.33;;;;;;;11.51;60.06;93089.91;4972304;28;20042;-41
2021/04/18 10:25:39;;;;;;;0.88;0.88;;;;;;;11.87;60.76;93078.41;4971503;28;20042;-41
2021/04/18 10:28:05;;;;;;;0.55;0.55;;;;;;;12.05;58.00;93074.38;4971785;28;20040;-42
2021/04/18 10:30:32;;;;;;;9.32;2.42;;;;;;;12.39;59.39;93084.75;4971647;28;20034;-40
2021/04/18 10:32:57;;;;;;;1.25;1.25;;;;;;;11.91;58.93;93082.22;4971482;28;20055;-40
2021/04/18 10:35:23;;;;;;;0.65;0.40;;;;;;;11.47;60.66;93084.03;4971626;28;20105;-41
2021/04/18 10:37:49;;;;;;;1.55;1.48;;;;;;;11.47;61.82;93088.81;4985275;28;20151;-40
2021/04/18 10:40:16;;;;;;;1.15;1.08;;;;;;;11.31;59.77;93093.72;4990978;28;20595;-42
2021/04/18 10:42:42;;;;;;;1.23;1.15;;;;;;;11.11;60.49;93097.53;4990472;28;20117;-43
2021/04/18 10:45:09;;;;;;;0.45;0.45;;;;;;;11.47;60.07;93099.88;4990841;28;20026;-40
2021/04/18 10:47:35;;;;;;;1.73;1.63;;;;;;;11.57;60.41;93095.19;4990655;28;20073;-41
2021/04/18 10:50:03;;;;;;;0.70;0.70;;;;;;;11.38;58.87;93104.72;4981349;28;20026;-43
2021/04/18 10:52:28;;;;;;;1.20;1.20;;;;;;;11.40;59.59;93093.84;4971523;28;20724;-43
2021/04/18 10:54:54;;;;;;;0.65;0.65;;;;;;;11.33;60.56;93093.88;4970839;28;20019;-41
2021/04/18 10:57:20;;;;;;;1.25;1.25;;;;;;;11.51;58.89;93100.22;4971487;28;20030;-43
2021/04/18 10:59:45;;;;;;;1.05;0.98;;;;;;;11.41;59.20;93087.00;4971572;28;20500;-42
2021/04/18 11:02:10;;;;;;;2.35;2.20;;;;;;;11.39;59.40;93073.00;4971444;28;20031;-42
2021/04/18 11:04:36;;;;;;;0.93;0.93;;;;;;;11.57;60.27;93093.16;4971663;28;20042;-42
2021/04/18 11:07:03;;;;;;;1.27;1.25;;;;;;;11.87;59.15;93092.22;4969222;28;20121;-42
2021/04/18 11:09:29;;;;;;;1.08;1.08;;;;;;;11.85;58.64;93090.03;4971076;28;20042;-43
2021/04/18 11:11:54;;;;;;;3.10;2.05;;;;;;;11.78;58.69;93093.59;4970887;28;20496;-41
2021/04/18 11:14:20;;;;;;;1.05;1.05;;;;;;;11.65;58.77;93101.44;4977469;28;20030;-42
2021/04/18 11:16:45;;;;;;;1.60;1.15;;;;;;;11.65;60.32;93088.31;4989464;28;20040;-42
2021/04/18 11:19:11;;;;;;;4.88;2.30;;;;;;;11.42;59.86;93094.00;4973584;28;20033;-40
2021/04/18 11:21:36;;;;;;;0.40;0.40;;;;;;;11.37;60.90;93096.97;4977889;28;20488;-40
2021/04/18 11:24:02;;;;;;;1.67;1.58;;;;;;;11.41;60.82;93098.06;4983623;28;20035;-40
2021/04/18 11:26:28;;;;;;;1.60;1.58;;;;;;;11.41;59.32;93102.88;4975497;28;20035;-41
2021/04/18 11:28:56;;;;;;;0.88;0.88;;;;;;;11.33;59.66;93102.91;4981732;28;20699;-41
2021/04/18 11:31:22;;;;;;;0.60;0.60;;;;;;;11.42;60.16;93096.78;4984094;28;20038;-42
2021/04/18 11:33:47;;;;;;;1.77;0.98;;;;;;;11.72;60.22;93093.09;4989417;28;20073;-42
2021/04/18 11:36:15;;;;;;;4.30;1.58;;;;;;;11.39;60.12;93088.88;4989768;28;20038;-41
2021/04/18 11:38:41;;;;;;;0.65;0.65;;;;;;;11.56;60.69;93107.56;4979716;28;20523;-40
2021/04/18 11:41:07;;;;;;;1.30;1.20;;;;;;;11.53;59.97;93108.69;4982366;28;20080;-42